Vista Point, Puerto Rico
Current Conditions -  °F | °C
As of 3:50 PM on Thursday 18 Dec 2014 (Local Time) from TJBQ Reporting Station
Scattered Clouds Scattered Clouds  
Wind Chill: 81°   Ceiling: Unl
Heat Index: 83°   Visibility: 10mi
Dew Point: 66°   Wind: 15mph
Humidity: 61%   Direction: 80°E
Pressure: 29.99"   Gusts: NA
Location:  18.0093°N, 66.6209°W
Report Text: TJBQ 181950Z 08013KT 10SM SCT030 SCT037 27/19 A2999 RMK RWY08 ATIS Z
Loading
Personal Weather Stations






























Interactive Weather Map New forecast layout! Learn more

10-Day Weather Forecast

Advertisements
Track Severe Weather on mobile